sensor_id;sensor_type;location;lat;lon;timestamp;P1;durP1;ratioP1;P2;durP2;ratioP2
36061;SDS011;22123;52.412;20.970;2023-07-16T00:01:31;3.45;;;2.65;;
36061;SDS011;22123;52.412;20.970;2023-07-16T00:03:56;2.22;;;1.98;;
36061;SDS011;22123;52.412;20.970;2023-07-16T00:06:22;2.25;;;2.15;;
36061;SDS011;22123;52.412;20.970;2023-07-16T00:08:48;3.20;;;2.53;;
36061;SDS011;22123;52.412;20.970;2023-07-16T00:11:14;5.22;;;2.08;;
36061;SDS011;22123;52.412;20.970;2023-07-16T00:13:40;3.17;;;2.33;;
36061;SDS011;22123;52.412;20.970;2023-07-16T00:16:06;3.67;;;2.28;;
36061;SDS011;22123;52.412;20.970;2023-07-16T00:18:32;2.55;;;2.10;;
36061;SDS011;22123;52.412;20.970;2023-07-16T00:23:23;2.58;;;2.38;;
36061;SDS011;22123;52.412;20.970;2023-07-16T00:25:49;2.85;;;1.95;;
36061;SDS011;22123;52.412;20.970;2023-07-16T00:28:15;3.35;;;1.98;;
36061;SDS011;22123;52.412;20.970;2023-07-16T00:30:41;3.58;;;2.20;;
36061;SDS011;22123;52.412;20.970;2023-07-16T00:33:07;2.78;;;2.38;;
36061;SDS011;22123;52.412;20.970;2023-07-16T00:35:33;3.00;;;2.00;;
36061;SDS011;22123;52.412;20.970;2023-07-16T00:37:58;2.75;;;2.15;;
36061;SDS011;22123;52.412;20.970;2023-07-16T00:40:24;2.88;;;2.28;;
36061;SDS011;22123;52.412;20.970;2023-07-16T00:42:50;1.85;;;1.67;;
36061;SDS011;22123;52.412;20.970;2023-07-16T00:45:16;3.05;;;1.77;;
36061;SDS011;22123;52.412;20.970;2023-07-16T00:47:44;2.58;;;1.98;;
36061;SDS011;22123;52.412;20.970;2023-07-16T00:50:11;2.60;;;2.15;;
36061;SDS011;22123;52.412;20.970;2023-07-16T00:55:03;2.72;;;1.90;;
36061;SDS011;22123;52.412;20.970;2023-07-16T00:57:30;3.05;;;2.05;;
36061;SDS011;22123;52.412;20.970;2023-07-16T00:59:56;2.97;;;2.25;;
36061;SDS011;22123;52.412;20.970;2023-07-16T01:04:48;2.72;;;1.52;;
36061;SDS011;22123;52.412;20.970;2023-07-16T01:09:41;2.15;;;1.95;;
36061;SDS011;22123;52.412;20.970;2023-07-16T01:12:09;2.25;;;1.42;;
36061;SDS011;22123;52.412;20.970;2023-07-16T01:14:35;2.60;;;2.08;;
36061;SDS011;22123;52.412;20.970;2023-07-16T01:17:03;2.83;;;1.75;;
36061;SDS011;22123;52.412;20.970;2023-07-16T01:19:30;3.08;;;2.00;;
36061;SDS011;22123;52.412;20.970;2023-07-16T01:27:50;2.60;;;2.40;;
36061;SDS011;22123;52.412;20.970;2023-07-16T01:30:39;2.53;;;1.95;;
36061;SDS011;22123;52.412;20.970;2023-07-16T01:33:09;2.95;;;2.05;;
36061;SDS011;22123;52.412;20.970;2023-07-16T01:35:37;1.95;;;1.70;;
36061;SDS011;22123;52.412;20.970;2023-07-16T01:38:06;2.17;;;1.70;;
36061;SDS011;22123;52.412;20.970;2023-07-16T01:40:33;2.55;;;1.80;;
36061;SDS011;22123;52.412;20.970;2023-07-16T01:45:25;2.33;;;1.90;;
36061;SDS011;22123;52.412;20.970;2023-07-16T01:50:34;2.58;;;1.90;;
36061;SDS011;22123;52.412;20.970;2023-07-16T01:55:25;3.53;;;2.10;;
36061;SDS011;22123;52.412;20.970;2023-07-16T01:57:51;2.15;;;1.95;;
36061;SDS011;22123;52.412;20.970;2023-07-16T02:02:43;1.83;;;1.73;;
36061;SDS011;22123;52.412;20.970;2023-07-16T02:05:09;2.72;;;1.98;;
36061;SDS011;22123;52.412;20.970;2023-07-16T02:07:35;2.47;;;2.20;;
36061;SDS011;22123;52.412;20.970;2023-07-16T02:10:00;1.98;;;1.75;;
36061;SDS011;22123;52.412;20.970;2023-07-16T02:12:26;3.58;;;2.78;;
36061;SDS011;22123;52.412;20.970;2023-07-16T02:17:18;3.25;;;2.00;;
36061;SDS011;22123;52.412;20.970;2023-07-16T02:19:44;2.72;;;1.88;;
36061;SDS011;22123;52.412;20.970;2023-07-16T02:22:09;3.10;;;1.95;;
36061;SDS011;22123;52.412;20.970;2023-07-16T02:24:35;3.65;;;2.08;;
36061;SDS011;22123;52.412;20.970;2023-07-16T02:27:01;2.90;;;2.20;;
36061;SDS011;22123;52.412;20.970;2023-07-16T02:29:27;4.30;;;2.10;;
36061;SDS011;22123;52.412;20.970;2023-07-16T02:31:53;2.25;;;1.73;;
36061;SDS011;22123;52.412;20.970;2023-07-16T02:34:19;2.80;;;2.05;;
36061;SDS011;22123;52.412;20.970;2023-07-16T02:36:45;2.08;;;1.83;;
36061;SDS011;22123;52.412;20.970;2023-07-16T02:39:11;2.75;;;1.80;;
36061;SDS011;22123;52.412;20.970;2023-07-16T02:41:37;2.50;;;2.03;;
36061;SDS011;22123;52.412;20.970;2023-07-16T02:44:04;2.90;;;2.15;;
36061;SDS011;22123;52.412;20.970;2023-07-16T02:46:31;2.83;;;2.50;;
36061;SDS011;22123;52.412;20.970;2023-07-16T02:48:57;3.08;;;1.60;;
36061;SDS011;22123;52.412;20.970;2023-07-16T02:51:23;2.20;;;1.85;;
36061;SDS011;22123;52.412;20.970;2023-07-16T02:53:49;3.72;;;1.88;;
36061;SDS011;22123;52.412;20.970;2023-07-16T02:56:15;2.33;;;1.80;;
36061;SDS011;22123;52.412;20.970;2023-07-16T02:58:41;3.13;;;1.70;;
36061;SDS011;22123;52.412;20.970;2023-07-16T03:01:07;3.53;;;1.75;;
36061;SDS011;22123;52.412;20.970;2023-07-16T03:03:32;3.33;;;2.28;;
36061;SDS011;22123;52.412;20.970;2023-07-16T03:05:58;2.83;;;2.38;;
36061;SDS011;22123;52.412;20.970;2023-07-16T03:08:24;3.38;;;2.17;;
36061;SDS011;22123;52.412;20.970;2023-07-16T03:10:50;2.70;;;2.50;;
36061;SDS011;22123;52.412;20.970;2023-07-16T03:13:16;4.47;;;2.33;;
36061;SDS011;22123;52.412;20.970;2023-07-16T03:15:42;2.65;;;2.15;;
36061;SDS011;22123;52.412;20.970;2023-07-16T03:18:08;2.28;;;1.80;;
36061;SDS011;22123;52.412;20.970;2023-07-16T03:20:34;3.00;;;2.60;;
36061;SDS011;22123;52.412;20.970;2023-07-16T03:22:59;3.00;;;2.13;;
36061;SDS011;22123;52.412;20.970;2023-07-16T03:25:25;3.10;;;2.40;;
36061;SDS011;22123;52.412;20.970;2023-07-16T03:27:51;2.75;;;2.35;;
36061;SDS011;22123;52.412;20.970;2023-07-16T03:30:17;4.88;;;2.22;;
36061;SDS011;22123;52.412;20.970;2023-07-16T03:32:43;2.60;;;2.17;;
36061;SDS011;22123;52.412;20.970;2023-07-16T03:35:09;2.53;;;1.83;;
36061;SDS011;22123;52.412;20.970;2023-07-16T03:37:35;2.33;;;2.13;;
36061;SDS011;22123;52.412;20.970;2023-07-16T03:40:12;2.65;;;2.45;;
36061;SDS011;22123;52.412;20.970;2023-07-16T03:42:42;2.88;;;1.90;;
36061;SDS011;22123;52.412;20.970;2023-07-16T03:45:09;2.58;;;1.90;;
36061;SDS011;22123;52.412;20.970;2023-07-16T03:47:35;2.80;;;1.65;;
36061;SDS011;22123;52.412;20.970;2023-07-16T03:50:02;3.15;;;2.10;;
36061;SDS011;22123;52.412;20.970;2023-07-16T03:52:28;2.25;;;1.65;;
36061;SDS011;22123;52.412;20.970;2023-07-16T03:54:54;2.63;;;2.10;;
36061;SDS011;22123;52.412;20.970;2023-07-16T03:57:20;2.03;;;1.85;;
36061;SDS011;22123;52.412;20.970;2023-07-16T03:59:46;2.65;;;1.85;;
36061;SDS011;22123;52.412;20.970;2023-07-16T04:02:12;2.72;;;1.77;;
36061;SDS011;22123;52.412;20.970;2023-07-16T04:04:38;2.80;;;2.20;;
36061;SDS011;22123;52.412;20.970;2023-07-16T04:07:04;2.88;;;2.28;;
36061;SDS011;22123;52.412;20.970;2023-07-16T04:09:30;3.20;;;2.00;;
36061;SDS011;22123;52.412;20.970;2023-07-16T04:11:56;2.90;;;2.15;;
36061;SDS011;22123;52.412;20.970;2023-07-16T04:14:22;4.18;;;2.17;;
36061;SDS011;22123;52.412;20.970;2023-07-16T04:16:48;2.17;;;1.80;;
36061;SDS011;22123;52.412;20.970;2023-07-16T04:21:39;5.07;;;2.78;;
36061;SDS011;22123;52.412;20.970;2023-07-16T04:24:05;2.00;;;1.63;;
36061;SDS011;22123;52.412;20.970;2023-07-16T04:26:31;2.58;;;2.10;;
36061;SDS011;22123;52.412;20.970;2023-07-16T04:28:57;3.33;;;2.10;;
36061;SDS011;22123;52.412;20.970;2023-07-16T04:31:23;2.70;;;2.50;;
36061;SDS011;22123;52.412;20.970;2023-07-16T04:33:49;3.42;;;2.85;;
36061;SDS011;22123;52.412;20.970;2023-07-16T04:36:15;2.45;;;1.80;;
36061;SDS011;22123;52.412;20.970;2023-07-16T04:38:41;3.38;;;3.10;;
36061;SDS011;22123;52.412;20.970;2023-07-16T04:41:07;2.88;;;2.47;;
36061;SDS011;22123;52.412;20.970;2023-07-16T04:43:33;2.33;;;1.77;;
36061;SDS011;22123;52.412;20.970;2023-07-16T04:45:59;2.38;;;1.80;;
36061;SDS011;22123;52.412;20.970;2023-07-16T04:48:25;2.92;;;1.73;;
36061;SDS011;22123;52.412;20.970;2023-07-16T04:50:52;3.20;;;2.38;;
36061;SDS011;22123;52.412;20.970;2023-07-16T04:53:18;3.15;;;2.45;;
36061;SDS011;22123;52.412;20.970;2023-07-16T04:55:43;4.60;;;2.25;;
36061;SDS011;22123;52.412;20.970;2023-07-16T04:58:11;4.68;;;2.05;;
36061;SDS011;22123;52.412;20.970;2023-07-16T05:00:37;4.28;;;2.10;;
36061;SDS011;22123;52.412;20.970;2023-07-16T05:03:03;3.15;;;2.45;;
36061;SDS011;22123;52.412;20.970;2023-07-16T05:05:29;2.25;;;2.05;;
36061;SDS011;22123;52.412;20.970;2023-07-16T05:07:55;2.25;;;1.88;;
36061;SDS011;22123;52.412;20.970;2023-07-16T05:10:20;4.38;;;2.25;;
36061;SDS011;22123;52.412;20.970;2023-07-16T05:12:46;2.30;;;1.95;;
36061;SDS011;22123;52.412;20.970;2023-07-16T05:15:12;2.35;;;1.83;;
36061;SDS011;22123;52.412;20.970;2023-07-16T05:17:38;1.75;;;1.65;;
36061;SDS011;22123;52.412;20.970;2023-07-16T05:20:04;3.08;;;2.72;;
36061;SDS011;22123;52.412;20.970;2023-07-16T05:22:30;1.88;;;1.77;;
36061;SDS011;22123;52.412;20.970;2023-07-16T05:24:58;3.30;;;2.20;;
36061;SDS011;22123;52.412;20.970;2023-07-16T05:27:23;2.40;;;1.98;;
36061;SDS011;22123;52.412;20.970;2023-07-16T05:29:49;4.25;;;2.30;;
36061;SDS011;22123;52.412;20.970;2023-07-16T05:32:15;5.63;;;2.65;;
36061;SDS011;22123;52.412;20.970;2023-07-16T05:34:41;2.15;;;1.90;;
36061;SDS011;22123;52.412;20.970;2023-07-16T05:37:07;2.35;;;2.15;;
36061;SDS011;22123;52.412;20.970;2023-07-16T05:39:33;2.20;;;1.88;;
36061;SDS011;22123;52.412;20.970;2023-07-16T05:41:59;2.58;;;2.28;;
36061;SDS011;22123;52.412;20.970;2023-07-16T05:44:25;2.83;;;2.40;;
36061;SDS011;22123;52.412;20.970;2023-07-16T05:46:51;3.95;;;2.67;;
36061;SDS011;22123;52.412;20.970;2023-07-16T05:49:16;2.67;;;2.10;;
36061;SDS011;22123;52.412;20.970;2023-07-16T05:51:42;4.10;;;2.25;;
36061;SDS011;22123;52.412;20.970;2023-07-16T05:54:08;3.22;;;2.08;;
36061;SDS011;22123;52.412;20.970;2023-07-16T05:56:34;3.70;;;1.98;;
36061;SDS011;22123;52.412;20.970;2023-07-16T05:59:00;2.38;;;2.17;;
36061;SDS011;22123;52.412;20.970;2023-07-16T06:01:26;2.17;;;1.77;;
36061;SDS011;22123;52.412;20.970;2023-07-16T06:03:52;3.17;;;2.13;;
36061;SDS011;22123;52.412;20.970;2023-07-16T06:06:18;2.80;;;2.42;;
36061;SDS011;22123;52.412;20.970;2023-07-16T06:08:43;2.53;;;1.92;;
36061;SDS011;22123;52.412;20.970;2023-07-16T06:11:09;2.58;;;2.05;;
36061;SDS011;22123;52.412;20.970;2023-07-16T06:13:35;2.92;;;2.17;;
36061;SDS011;22123;52.412;20.970;2023-07-16T06:16:01;3.08;;;2.03;;
36061;SDS011;22123;52.412;20.970;2023-07-16T06:18:27;3.03;;;2.30;;
36061;SDS011;22123;52.412;20.970;2023-07-16T06:20:53;2.55;;;2.25;;
36061;SDS011;22123;52.412;20.970;2023-07-16T06:23:19;2.72;;;2.25;;
36061;SDS011;22123;52.412;20.970;2023-07-16T06:25:45;2.35;;;2.00;;
36061;SDS011;22123;52.412;20.970;2023-07-16T06:28:10;2.58;;;2.28;;
36061;SDS011;22123;52.412;20.970;2023-07-16T06:30:36;3.38;;;2.13;;
36061;SDS011;22123;52.412;20.970;2023-07-16T06:33:02;2.92;;;2.03;;
36061;SDS011;22123;52.412;20.970;2023-07-16T06:35:28;3.05;;;2.22;;
36061;SDS011;22123;52.412;20.970;2023-07-16T06:37:54;2.95;;;1.95;;
36061;SDS011;22123;52.412;20.970;2023-07-16T06:40:20;4.88;;;2.40;;
36061;SDS011;22123;52.412;20.970;2023-07-16T06:42:46;2.30;;;2.08;;
36061;SDS011;22123;52.412;20.970;2023-07-16T06:45:12;3.83;;;2.17;;
36061;SDS011;22123;52.412;20.970;2023-07-16T06:47:38;2.38;;;2.17;;
36061;SDS011;22123;52.412;20.970;2023-07-16T06:50:04;2.40;;;2.20;;
36061;SDS011;22123;52.412;20.970;2023-07-16T06:52:30;3.70;;;2.10;;
36061;SDS011;22123;52.412;20.970;2023-07-16T06:54:56;2.80;;;2.08;;
36061;SDS011;22123;52.412;20.970;2023-07-16T06:57:25;2.17;;;1.98;;
36061;SDS011;22123;52.412;20.970;2023-07-16T06:59:51;2.33;;;2.00;;
36061;SDS011;22123;52.412;20.970;2023-07-16T07:02:17;2.85;;;2.05;;
36061;SDS011;22123;52.412;20.970;2023-07-16T07:04:43;2.42;;;2.22;;
36061;SDS011;22123;52.412;20.970;2023-07-16T07:07:09;2.92;;;2.10;;
36061;SDS011;22123;52.412;20.970;2023-07-16T07:09:35;2.50;;;2.17;;
36061;SDS011;22123;52.412;20.970;2023-07-16T07:12:01;2.58;;;2.33;;
36061;SDS011;22123;52.412;20.970;2023-07-16T07:14:27;2.88;;;2.05;;
36061;SDS011;22123;52.412;20.970;2023-07-16T07:16:52;4.10;;;2.40;;
36061;SDS011;22123;52.412;20.970;2023-07-16T07:19:18;3.05;;;2.25;;
36061;SDS011;22123;52.412;20.970;2023-07-16T07:21:44;2.83;;;2.50;;
36061;SDS011;22123;52.412;20.970;2023-07-16T07:24:10;3.80;;;2.75;;
36061;SDS011;22123;52.412;20.970;2023-07-16T07:26:36;4.32;;;2.80;;
36061;SDS011;22123;52.412;20.970;2023-07-16T07:29:02;2.75;;;2.53;;
36061;SDS011;22123;52.412;20.970;2023-07-16T07:31:28;3.15;;;2.08;;
36061;SDS011;22123;52.412;20.970;2023-07-16T07:33:54;2.63;;;2.28;;
36061;SDS011;22123;52.412;20.970;2023-07-16T07:36:20;3.35;;;2.80;;
36061;SDS011;22123;52.412;20.970;2023-07-16T07:38:46;2.90;;;2.15;;
36061;SDS011;22123;52.412;20.970;2023-07-16T07:41:12;3.95;;;3.10;;
36061;SDS011;22123;52.412;20.970;2023-07-16T07:43:37;3.70;;;2.47;;
36061;SDS011;22123;52.412;20.970;2023-07-16T07:46:03;2.88;;;2.55;;
36061;SDS011;22123;52.412;20.970;2023-07-16T07:48:29;3.08;;;2.78;;
36061;SDS011;22123;52.412;20.970;2023-07-16T07:50:55;2.67;;;2.38;;
36061;SDS011;22123;52.412;20.970;2023-07-16T07:53:21;2.53;;;2.30;;
36061;SDS011;22123;52.412;20.970;2023-07-16T07:55:47;2.70;;;2.50;;
36061;SDS011;22123;52.412;20.970;2023-07-16T07:58:13;3.67;;;2.50;;
36061;SDS011;22123;52.412;20.970;2023-07-16T08:00:39;3.15;;;2.42;;
36061;SDS011;22123;52.412;20.970;2023-07-16T08:03:05;2.08;;;1.92;;
36061;SDS011;22123;52.412;20.970;2023-07-16T08:05:31;2.70;;;2.50;;
36061;SDS011;22123;52.412;20.970;2023-07-16T08:07:56;2.38;;;2.17;;
36061;SDS011;22123;52.412;20.970;2023-07-16T08:13:26;2.67;;;2.30;;
36061;SDS011;22123;52.412;20.970;2023-07-16T08:15:52;2.60;;;2.40;;
36061;SDS011;22123;52.412;20.970;2023-07-16T08:18:18;3.35;;;2.63;;
36061;SDS011;22123;52.412;20.970;2023-07-16T08:20:44;2.83;;;2.60;;
36061;SDS011;22123;52.412;20.970;2023-07-16T08:23:11;2.67;;;2.47;;
36061;SDS011;22123;52.412;20.970;2023-07-16T08:25:38;3.97;;;3.22;;
36061;SDS011;22123;52.412;20.970;2023-07-16T08:28:04;5.15;;;3.03;;
36061;SDS011;22123;52.412;20.970;2023-07-16T08:30:30;2.30;;;2.17;;
36061;SDS011;22123;52.412;20.970;2023-07-16T08:32:57;3.05;;;2.72;;
36061;SDS011;22123;52.412;20.970;2023-07-16T08:35:23;2.67;;;2.47;;
36061;SDS011;22123;52.412;20.970;2023-07-16T08:37:49;2.72;;;2.50;;
36061;SDS011;22123;52.412;20.970;2023-07-16T08:40:18;2.60;;;2.40;;
36061;SDS011;22123;52.412;20.970;2023-07-16T08:43:02;2.78;;;2.58;;
36061;SDS011;22123;52.412;20.970;2023-07-16T08:45:30;3.15;;;2.95;;
36061;SDS011;22123;52.412;20.970;2023-07-16T08:48:00;3.80;;;3.40;;
36061;SDS011;22123;52.412;20.970;2023-07-16T08:50:32;2.65;;;2.42;;
36061;SDS011;22123;52.412;20.970;2023-07-16T08:53:07;2.72;;;2.53;;
36061;SDS011;22123;52.412;20.970;2023-07-16T08:55:33;2.83;;;2.63;;
36061;SDS011;22123;52.412;20.970;2023-07-16T08:58:00;3.33;;;3.03;;
36061;SDS011;22123;52.412;20.970;2023-07-16T09:00:27;2.70;;;2.50;;
36061;SDS011;22123;52.412;20.970;2023-07-16T09:02:53;3.25;;;3.05;;
36061;SDS011;22123;52.412;20.970;2023-07-16T09:05:20;3.38;;;2.97;;
36061;SDS011;22123;52.412;20.970;2023-07-16T09:07:46;2.85;;;2.65;;
36061;SDS011;22123;52.412;20.970;2023-07-16T09:10:12;3.28;;;2.88;;
36061;SDS011;22123;52.412;20.970;2023-07-16T09:12:45;2.80;;;2.60;;
36061;SDS011;22123;52.412;20.970;2023-07-16T09:15:11;2.95;;;2.75;;
36061;SDS011;22123;52.412;20.970;2023-07-16T09:17:39;3.28;;;2.75;;
36061;SDS011;22123;52.412;20.970;2023-07-16T09:20:05;2.42;;;2.22;;
36061;SDS011;22123;52.412;20.970;2023-07-16T09:22:32;3.03;;;2.72;;
36061;SDS011;22123;52.412;20.970;2023-07-16T09:24:59;3.22;;;2.47;;
36061;SDS011;22123;52.412;20.970;2023-07-16T09:27:29;3.60;;;2.72;;
36061;SDS011;22123;52.412;20.970;2023-07-16T09:29:56;2.92;;;2.60;;
36061;SDS011;22123;52.412;20.970;2023-07-16T09:32:22;2.58;;;2.38;;
36061;SDS011;22123;52.412;20.970;2023-07-16T09:34:50;3.05;;;2.63;;
36061;SDS011;22123;52.412;20.970;2023-07-16T09:37:17;2.42;;;2.22;;
36061;SDS011;22123;52.412;20.970;2023-07-16T09:39:43;2.67;;;2.47;;
36061;SDS011;22123;52.412;20.970;2023-07-16T09:42:11;3.38;;;2.78;;
36061;SDS011;22123;52.412;20.970;2023-07-16T09:44:37;2.50;;;2.30;;
36061;SDS011;22123;52.412;20.970;2023-07-16T09:47:04;2.58;;;2.38;;
36061;SDS011;22123;52.412;20.970;2023-07-16T09:49:30;3.78;;;2.45;;
36061;SDS011;22123;52.412;20.970;2023-07-16T09:51:56;2.53;;;2.33;;
36061;SDS011;22123;52.412;20.970;2023-07-16T09:54:24;2.30;;;2.10;;
36061;SDS011;22123;52.412;20.970;2023-07-16T09:56:57;3.22;;;2.92;;
36061;SDS011;22123;52.412;20.970;2023-07-16T09:59:25;2.75;;;2.55;;
36061;SDS011;22123;52.412;20.970;2023-07-16T10:01:54;2.45;;;2.25;;
36061;SDS011;22123;52.412;20.970;2023-07-16T10:04:21;3.28;;;2.97;;
36061;SDS011;22123;52.412;20.970;2023-07-16T10:09:39;2.97;;;2.65;;
36061;SDS011;22123;52.412;20.970;2023-07-16T10:14:52;3.15;;;2.83;;
36061;SDS011;22123;52.412;20.970;2023-07-16T10:17:22;3.60;;;2.83;;
36061;SDS011;22123;52.412;20.970;2023-07-16T10:24:58;2.67;;;2.47;;
36061;SDS011;22123;52.412;20.970;2023-07-16T10:27:31;2.70;;;2.50;;
36061;SDS011;22123;52.412;20.970;2023-07-16T10:29:58;3.53;;;3.22;;
36061;SDS011;22123;52.412;20.970;2023-07-16T10:32:28;2.85;;;2.65;;
36061;SDS011;22123;52.412;20.970;2023-07-16T10:34:55;2.85;;;2.65;;
36061;SDS011;22123;52.412;20.970;2023-07-16T10:37:22;3.47;;;3.10;;
36061;SDS011;22123;52.412;20.970;2023-07-16T10:39:48;3.88;;;2.90;;
36061;SDS011;22123;52.412;20.970;2023-07-16T10:42:16;3.13;;;2.90;;
36061;SDS011;22123;52.412;20.970;2023-07-16T10:44:42;3.58;;;3.28;;
36061;SDS011;22123;52.412;20.970;2023-07-16T10:47:08;3.13;;;2.92;;
36061;SDS011;22123;52.412;20.970;2023-07-16T10:49:35;3.65;;;2.95;;
36061;SDS011;22123;52.412;20.970;2023-07-16T10:52:01;2.85;;;2.63;;
36061;SDS011;22123;52.412;20.970;2023-07-16T10:54:27;3.53;;;3.22;;
36061;SDS011;22123;52.412;20.970;2023-07-16T10:56:53;3.42;;;3.17;;
36061;SDS011;22123;52.412;20.970;2023-07-16T10:59:19;3.50;;;3.00;;
36061;SDS011;22123;52.412;20.970;2023-07-16T11:01:45;3.40;;;3.10;;
36061;SDS011;22123;52.412;20.970;2023-07-16T11:04:11;2.60;;;2.40;;
36061;SDS011;22123;52.412;20.970;2023-07-16T11:06:37;7.32;;;3.58;;
36061;SDS011;22123;52.412;20.970;2023-07-16T11:09:06;4.15;;;3.40;;
36061;SDS011;22123;52.412;20.970;2023-07-16T11:11:35;3.58;;;3.05;;
36061;SDS011;22123;52.412;20.970;2023-07-16T11:14:04;5.13;;;3.08;;
36061;SDS011;22123;52.412;20.970;2023-07-16T11:16:34;4.35;;;3.17;;
36061;SDS011;22123;52.412;20.970;2023-07-16T11:19:02;3.80;;;3.20;;
36061;SDS011;22123;52.412;20.970;2023-07-16T11:21:34;3.05;;;2.83;;
36061;SDS011;22123;52.412;20.970;2023-07-16T11:24:07;3.17;;;2.97;;
36061;SDS011;22123;52.412;20.970;2023-07-16T11:26:33;3.30;;;3.00;;
36061;SDS011;22123;52.412;20.970;2023-07-16T11:28:59;3.53;;;3.22;;
36061;SDS011;22123;52.412;20.970;2023-07-16T11:31:25;3.40;;;3.10;;
36061;SDS011;22123;52.412;20.970;2023-07-16T11:33:51;3.47;;;3.17;;
36061;SDS011;22123;52.412;20.970;2023-07-16T11:36:17;3.00;;;2.80;;
36061;SDS011;22123;52.412;20.970;2023-07-16T11:38:43;3.47;;;3.17;;
36061;SDS011;22123;52.412;20.970;2023-07-16T11:41:09;3.22;;;2.92;;
36061;SDS011;22123;52.412;20.970;2023-07-16T11:43:35;3.58;;;3.30;;
36061;SDS011;22123;52.412;20.970;2023-07-16T11:46:02;3.75;;;3.25;;
36061;SDS011;22123;52.412;20.970;2023-07-16T11:48:28;3.58;;;3.28;;
36061;SDS011;22123;52.412;20.970;2023-07-16T11:50:54;3.75;;;3.45;;
36061;SDS011;22123;52.412;20.970;2023-07-16T11:53:20;3.03;;;2.72;;
36061;SDS011;22123;52.412;20.970;2023-07-16T11:55:46;3.92;;;3.28;;
36061;SDS011;22123;52.412;20.970;2023-07-16T11:58:12;3.13;;;2.83;;
36061;SDS011;22123;52.412;20.970;2023-07-16T12:00:37;3.30;;;3.03;;
36061;SDS011;22123;52.412;20.970;2023-07-16T12:03:03;3.42;;;2.97;;
36061;SDS011;22123;52.412;20.970;2023-07-16T12:05:29;3.58;;;3.28;;
36061;SDS011;22123;52.412;20.970;2023-07-16T12:07:55;4.10;;;3.75;;
36061;SDS011;22123;52.412;20.970;2023-07-16T12:10:21;3.80;;;3.50;;
36061;SDS011;22123;52.412;20.970;2023-07-16T12:12:47;3.22;;;3.03;;
36061;SDS011;22123;52.412;20.970;2023-07-16T12:15:13;5.97;;;3.42;;
36061;SDS011;22123;52.412;20.970;2023-07-16T12:17:39;3.50;;;3.00;;
36061;SDS011;22123;52.412;20.970;2023-07-16T12:20:05;3.92;;;2.83;;
36061;SDS011;22123;52.412;20.970;2023-07-16T12:22:31;2.88;;;2.60;;
36061;SDS011;22123;52.412;20.970;2023-07-16T12:24:57;4.13;;;3.20;;
36061;SDS011;22123;52.412;20.970;2023-07-16T12:27:23;3.65;;;3.35;;
36061;SDS011;22123;52.412;20.970;2023-07-16T12:29:49;3.80;;;3.50;;
36061;SDS011;22123;52.412;20.970;2023-07-16T12:32:14;3.92;;;3.10;;
36061;SDS011;22123;52.412;20.970;2023-07-16T12:34:40;3.30;;;3.10;;
36061;SDS011;22123;52.412;20.970;2023-07-16T12:37:06;3.65;;;3.15;;
36061;SDS011;22123;52.412;20.970;2023-07-16T12:39:32;3.60;;;3.30;;
36061;SDS011;22123;52.412;20.970;2023-07-16T12:41:58;3.75;;;3.45;;
36061;SDS011;22123;52.412;20.970;2023-07-16T12:44:24;3.55;;;2.58;;
36061;SDS011;22123;52.412;20.970;2023-07-16T12:46:50;3.20;;;2.90;;
36061;SDS011;22123;52.412;20.970;2023-07-16T12:49:16;3.67;;;2.95;;
36061;SDS011;22123;52.412;20.970;2023-07-16T12:51:42;2.95;;;2.72;;
36061;SDS011;22123;52.412;20.970;2023-07-16T12:54:07;2.85;;;2.50;;
36061;SDS011;22123;52.412;20.970;2023-07-16T12:56:33;2.97;;;2.78;;
36061;SDS011;22123;52.412;20.970;2023-07-16T12:58:59;2.95;;;2.65;;
36061;SDS011;22123;52.412;20.970;2023-07-16T13:01:25;4.15;;;2.70;;
36061;SDS011;22123;52.412;20.970;2023-07-16T13:03:51;3.15;;;2.83;;
36061;SDS011;22123;52.412;20.970;2023-07-16T13:06:17;2.58;;;2.38;;
36061;SDS011;22123;52.412;20.970;2023-07-16T13:08:43;2.35;;;2.15;;
36061;SDS011;22123;52.412;20.970;2023-07-16T13:11:09;3.80;;;2.60;;
36061;SDS011;22123;52.412;20.970;2023-07-16T13:13:36;2.60;;;2.40;;
36061;SDS011;22123;52.412;20.970;2023-07-16T13:16:02;3.20;;;2.92;;
36061;SDS011;22123;52.412;20.970;2023-07-16T13:18:28;2.33;;;2.13;;
36061;SDS011;22123;52.412;20.970;2023-07-16T13:20:54;2.50;;;2.30;;
36061;SDS011;22123;52.412;20.970;2023-07-16T13:23:20;2.08;;;1.88;;
36061;SDS011;22123;52.412;20.970;2023-07-16T13:25:46;2.40;;;2.20;;
36061;SDS011;22123;52.412;20.970;2023-07-16T13:28:11;2.63;;;2.42;;
36061;SDS011;22123;52.412;20.970;2023-07-16T13:30:37;2.25;;;2.05;;
36061;SDS011;22123;52.412;20.970;2023-07-16T13:33:03;2.17;;;1.98;;
36061;SDS011;22123;52.412;20.970;2023-07-16T13:35:29;2.42;;;2.22;;
36061;SDS011;22123;52.412;20.970;2023-07-16T13:37:55;2.42;;;2.22;;
36061;SDS011;22123;52.412;20.970;2023-07-16T13:40:21;2.15;;;1.98;;
36061;SDS011;22123;52.412;20.970;2023-07-16T13:42:47;1.98;;;1.77;;
36061;SDS011;22123;52.412;20.970;2023-07-16T13:45:13;1.35;;;1.27;;
36061;SDS011;22123;52.412;20.970;2023-07-16T13:47:39;2.38;;;1.92;;
36061;SDS011;22123;52.412;20.970;2023-07-16T13:50:05;2.15;;;1.95;;
36061;SDS011;22123;52.412;20.970;2023-07-16T13:52:31;1.92;;;1.83;;
36061;SDS011;22123;52.412;20.970;2023-07-16T13:55:00;1.70;;;1.60;;
36061;SDS011;22123;52.412;20.970;2023-07-16T13:57:26;2.17;;;1.90;;
36061;SDS011;22123;52.412;20.970;2023-07-16T13:59:52;1.80;;;1.70;;
36061;SDS011;22123;52.412;20.970;2023-07-16T14:02:18;2.47;;;1.98;;
36061;SDS011;22123;52.412;20.970;2023-07-16T14:04:44;2.38;;;2.20;;
36061;SDS011;22123;52.412;20.970;2023-07-16T14:07:10;2.00;;;1.90;;
36061;SDS011;22123;52.412;20.970;2023-07-16T14:09:35;3.08;;;1.95;;
36061;SDS011;22123;52.412;20.970;2023-07-16T14:12:07;1.67;;;1.58;;
36061;SDS011;22123;52.412;20.970;2023-07-16T14:14:39;1.92;;;1.83;;
36061;SDS011;22123;52.412;20.970;2023-07-16T14:17:05;1.77;;;1.65;;
36061;SDS011;22123;52.412;20.970;2023-07-16T14:19:31;1.83;;;1.42;;
36061;SDS011;22123;52.412;20.970;2023-07-16T14:21:57;1.60;;;1.50;;
36061;SDS011;22123;52.412;20.970;2023-07-16T14:24:22;2.80;;;1.52;;
36061;SDS011;22123;52.412;20.970;2023-07-16T14:26:48;2.33;;;1.25;;
36061;SDS011;22123;52.412;20.970;2023-07-16T14:29:14;1.30;;;1.20;;
36061;SDS011;22123;52.412;20.970;2023-07-16T14:31:40;1.40;;;1.30;;
36061;SDS011;22123;52.412;20.970;2023-07-16T14:34:06;1.40;;;1.30;;
36061;SDS011;22123;52.412;20.970;2023-07-16T14:36:32;1.42;;;1.33;;
36061;SDS011;22123;52.412;20.970;2023-07-16T14:38:58;1.20;;;1.13;;
36061;SDS011;22123;52.412;20.970;2023-07-16T14:41:24;1.38;;;1.27;;
36061;SDS011;22123;52.412;20.970;2023-07-16T14:43:50;1.20;;;1.10;;
36061;SDS011;22123;52.412;20.970;2023-07-16T14:46:18;1.30;;;1.20;;
36061;SDS011;22123;52.412;20.970;2023-07-16T14:48:44;1.42;;;1.33;;
36061;SDS011;22123;52.412;20.970;2023-07-16T14:51:10;1.20;;;1.10;;
36061;SDS011;22123;52.412;20.970;2023-07-16T14:53:39;1.73;;;1.17;;
36061;SDS011;22123;52.412;20.970;2023-07-16T14:56:05;1.50;;;1.40;;
36061;SDS011;22123;52.412;20.970;2023-07-16T14:58:32;1.40;;;1.17;;
36061;SDS011;22123;52.412;20.970;2023-07-16T15:00:59;1.42;;;1.17;;
36061;SDS011;22123;52.412;20.970;2023-07-16T15:03:25;1.20;;;1.10;;
36061;SDS011;22123;52.412;20.970;2023-07-16T15:05:55;1.52;;;1.42;;
36061;SDS011;22123;52.412;20.970;2023-07-16T15:08:21;1.52;;;1.42;;
36061;SDS011;22123;52.412;20.970;2023-07-16T15:10:47;1.58;;;1.40;;
36061;SDS011;22123;52.412;20.970;2023-07-16T15:13:13;1.30;;;1.20;;